createdAt,value
2022-07-26T00:02:24.674Z,0.98
2022-07-26T00:05:10.349Z,1.40
2022-07-26T00:08:10.667Z,1.00
2022-07-26T00:10:56.454Z,1.23
2022-07-26T00:13:42.174Z,1.42
2022-07-26T00:16:28.502Z,1.30
2022-07-26T00:19:14.405Z,1.30
2022-07-26T00:22:18.692Z,1.45
2022-07-26T00:25:07.137Z,1.20
2022-07-26T00:27:53.170Z,1.33
2022-07-26T00:30:38.847Z,1.45
2022-07-26T00:33:24.556Z,1.10
2022-07-26T00:36:10.253Z,1.20
2022-07-26T00:38:55.762Z,1.15
2022-07-26T00:41:41.383Z,1.40
2022-07-26T00:44:40.491Z,1.15
2022-07-26T00:47:26.429Z,1.70
2022-07-26T00:50:15.485Z,1.50
2022-07-26T00:53:01.805Z,1.10
2022-07-26T00:55:49.850Z,1.23
2022-07-26T00:58:35.597Z,1.40
2022-07-26T01:01:21.191Z,1.20
2022-07-26T01:04:06.976Z,1.40
2022-07-26T01:06:53.401Z,1.50
2022-07-26T01:09:39.837Z,1.27
2022-07-26T01:12:25.720Z,1.33
2022-07-26T01:15:13.597Z,1.40
2022-07-26T01:18:00.059Z,1.38
2022-07-26T01:20:45.705Z,1.65
2022-07-26T01:23:31.595Z,1.60
2022-07-26T01:26:17.813Z,1.60
2022-07-26T01:29:05.298Z,1.02
2022-07-26T01:31:51.777Z,1.77
2022-07-26T01:34:37.573Z,1.33
2022-07-26T01:37:23.153Z,1.63
2022-07-26T01:40:09.418Z,1.52
2022-07-26T01:42:55.245Z,1.65
2022-07-26T01:45:41.065Z,1.50
2022-07-26T01:48:26.749Z,1.52
2022-07-26T01:51:12.534Z,1.40
2022-07-26T01:53:57.967Z,1.83
2022-07-26T01:56:43.487Z,1.60
2022-07-26T01:59:29.079Z,1.77
2022-07-26T02:02:18.742Z,1.67
2022-07-26T02:05:05.541Z,1.65
2022-07-26T02:07:51.033Z,1.67
2022-07-26T02:10:59.690Z,1.50
2022-07-26T02:13:53.774Z,1.73
2022-07-26T02:16:45.303Z,1.80
2022-07-26T02:19:32.169Z,1.77
2022-07-26T02:22:19.896Z,1.70
2022-07-26T02:25:05.899Z,1.98
2022-07-26T02:27:51.637Z,1.55
2022-07-26T02:30:38.209Z,1.50
2022-07-26T02:33:25.365Z,1.35
2022-07-26T02:36:10.934Z,1.67
2022-07-26T02:38:56.433Z,1.65
2022-07-26T02:41:42.516Z,1.92
2022-07-26T02:44:28.992Z,1.52
2022-07-26T02:47:14.791Z,1.83
2022-07-26T02:50:00.344Z,2.00
2022-07-26T02:52:49.452Z,1.60
2022-07-26T02:55:35.230Z,1.85
2022-07-26T02:58:21.663Z,1.58
2022-07-26T03:01:07.280Z,1.48
2022-07-26T03:03:54.152Z,1.38
2022-07-26T03:06:39.615Z,1.60
2022-07-26T03:09:25.151Z,1.35
2022-07-26T03:12:10.837Z,1.60
2022-07-26T03:14:56.245Z,1.40
2022-07-26T03:17:41.741Z,1.42
2022-07-26T03:20:27.272Z,1.42
2022-07-26T03:23:12.560Z,1.55
2022-07-26T03:25:58.176Z,1.60
2022-07-26T03:28:44.699Z,1.40
2022-07-26T03:31:30.127Z,1.60
2022-07-26T03:34:15.734Z,1.80
2022-07-26T03:37:01.277Z,1.50
2022-07-26T03:39:46.904Z,1.95
2022-07-26T03:42:32.487Z,1.85
2022-07-26T03:45:17.992Z,1.40
2022-07-26T03:48:03.865Z,1.75
2022-07-26T03:50:49.660Z,1.83
2022-07-26T03:53:35.152Z,1.90
2022-07-26T03:56:31.613Z,1.65
2022-07-26T03:59:18.733Z,1.60
2022-07-26T04:02:04.389Z,1.20
2022-07-26T04:04:49.617Z,1.60
2022-07-26T04:07:40.881Z,1.55
2022-07-26T04:10:27.209Z,1.35
2022-07-26T04:13:12.798Z,2.05
2022-07-26T04:15:58.458Z,1.48
2022-07-26T04:18:43.919Z,1.42
2022-07-26T04:21:29.412Z,1.40
2022-07-26T04:24:15.142Z,1.80
2022-07-26T04:27:00.677Z,2.05
2022-07-26T04:29:46.323Z,1.70
2022-07-26T04:32:32.078Z,2.33
2022-07-26T04:35:18.073Z,1.85
2022-07-26T04:38:04.231Z,1.60
2022-07-26T04:40:51.154Z,2.10
2022-07-26T04:43:37.045Z,1.90
2022-07-26T04:46:22.818Z,2.28
2022-07-26T04:49:08.265Z,1.38
2022-07-26T04:51:58.994Z,2.00
2022-07-26T04:54:44.873Z,1.88
2022-07-26T04:57:30.366Z,1.85
2022-07-26T05:00:23.005Z,2.10
2022-07-26T05:03:08.982Z,2.25
2022-07-26T05:05:54.523Z,1.90
2022-07-26T05:08:42.100Z,2.00
2022-07-26T05:11:28.254Z,1.85
2022-07-26T05:14:13.826Z,2.00
2022-07-26T05:16:59.455Z,2.42
2022-07-26T05:19:57.741Z,1.73
2022-07-26T05:22:45.141Z,1.80
2022-07-26T05:25:30.933Z,1.67
2022-07-26T05:28:16.494Z,2.50
2022-07-26T05:31:02.198Z,2.08
2022-07-26T05:33:47.841Z,2.20
2022-07-26T05:36:33.946Z,2.28
2022-07-26T05:39:19.466Z,1.60
2022-07-26T05:42:05.133Z,2.00
2022-07-26T05:44:50.900Z,2.42
2022-07-26T05:47:36.783Z,2.00
2022-07-26T05:50:22.525Z,2.63
2022-07-26T05:53:08.380Z,2.22
2022-07-26T05:55:54.526Z,1.98
2022-07-26T05:58:40.187Z,2.53
2022-07-26T06:01:25.717Z,2.20
2022-07-26T06:04:13.515Z,2.75
2022-07-26T06:06:59.552Z,2.90
2022-07-26T06:09:45.432Z,2.25
2022-07-26T06:12:31.032Z,2.33
2022-07-26T06:15:16.499Z,1.90
2022-07-26T06:18:02.511Z,2.17
2022-07-26T06:20:48.912Z,2.85
2022-07-26T06:23:35.250Z,1.95
2022-07-26T06:26:20.742Z,2.20
2022-07-26T06:29:06.262Z,2.65
2022-07-26T06:31:52.384Z,2.58
2022-07-26T06:34:38.007Z,2.85
2022-07-26T06:37:23.488Z,2.78
2022-07-26T06:40:10.902Z,2.47
2022-07-26T06:42:58.951Z,2.55
2022-07-26T06:45:49.380Z,2.85
2022-07-26T06:48:35.790Z,3.28
2022-07-26T06:51:22.498Z,2.72
2022-07-26T06:54:08.272Z,2.72
2022-07-26T06:56:54.207Z,2.95
2022-07-26T06:59:39.710Z,2.70
2022-07-26T07:02:26.391Z,3.13
2022-07-26T07:05:12.527Z,2.92
2022-07-26T07:07:58.411Z,2.72
2022-07-26T07:10:44.318Z,2.85
2022-07-26T07:13:30.332Z,2.35
2022-07-26T07:16:16.378Z,3.53
2022-07-26T07:19:02.162Z,3.53
2022-07-26T07:21:47.717Z,3.20
2022-07-26T07:24:33.553Z,2.53
2022-07-26T07:27:19.648Z,3.13
2022-07-26T07:30:08.321Z,3.30
2022-07-26T07:32:55.879Z,2.45
2022-07-26T07:35:42.604Z,3.00
2022-07-26T07:38:28.951Z,2.80
2022-07-26T07:41:16.016Z,2.90
2022-07-26T07:44:01.857Z,2.58
2022-07-26T07:46:47.637Z,2.92
2022-07-26T07:49:33.228Z,2.60
2022-07-26T07:52:18.894Z,3.60
2022-07-26T07:55:36.804Z,2.30
2022-07-26T07:58:10.492Z,3.22
2022-07-26T08:00:56.720Z,3.53
2022-07-26T08:03:42.164Z,2.63
2022-07-26T08:06:27.600Z,3.35
2022-07-26T08:09:13.906Z,3.15
2022-07-26T08:11:59.687Z,3.38
2022-07-26T08:14:46.258Z,2.83
2022-07-26T08:17:31.850Z,2.90
2022-07-26T08:20:20.703Z,2.83
2022-07-26T08:23:09.468Z,3.30
2022-07-26T08:25:58.015Z,2.95
2022-07-26T08:28:47.863Z,3.08
2022-07-26T08:31:34.148Z,3.28
2022-07-26T08:34:21.900Z,3.10
2022-07-26T08:37:17.151Z,2.78
2022-07-26T08:40:04.196Z,2.35
2022-07-26T08:42:55.724Z,2.33
2022-07-26T08:45:41.658Z,2.80
2022-07-26T08:48:27.454Z,2.40
2022-07-26T08:51:13.993Z,3.00
2022-07-26T08:54:05.769Z,3.28
2022-07-26T08:56:53.192Z,2.95
2022-07-26T08:59:39.455Z,3.17
2022-07-26T09:02:40.937Z,2.70
2022-07-26T09:05:37.071Z,2.10
2022-07-26T09:08:28.908Z,1.30
2022-07-26T09:11:23.682Z,1.52
2022-07-26T09:14:09.314Z,1.20
2022-07-26T09:16:59.850Z,1.77
2022-07-26T09:19:46.315Z,1.10
2022-07-26T09:22:32.167Z,1.50
2022-07-26T09:25:23.540Z,1.30
2022-07-26T09:28:26.496Z,1.60
2022-07-26T09:31:12.876Z,1.50
2022-07-26T09:34:00.031Z,1.70
2022-07-26T09:36:53.449Z,1.55
2022-07-26T09:40:09.764Z,1.50
2022-07-26T09:42:57.565Z,1.70
2022-07-26T09:45:43.408Z,1.42
2022-07-26T09:48:36.557Z,1.70
2022-07-26T09:51:39.703Z,1.58
2022-07-26T09:54:33.676Z,1.30
2022-07-26T09:57:20.814Z,1.33
2022-07-26T10:00:07.849Z,1.77
2022-07-26T10:02:54.383Z,1.55
2022-07-26T10:05:40.739Z,1.52
2022-07-26T10:08:27.684Z,1.40
2022-07-26T10:11:14.488Z,1.30
2022-07-26T10:14:00.134Z,1.48
2022-07-26T10:16:45.633Z,1.40
2022-07-26T10:19:45.404Z,1.45
2022-07-26T10:22:44.237Z,1.40
2022-07-26T10:25:32.641Z,1.63
2022-07-26T10:28:27.801Z,1.40
2022-07-26T10:31:30.480Z,1.30
2022-07-26T10:34:35.290Z,1.60
2022-07-26T10:37:23.773Z,1.08
2022-07-26T10:40:22.614Z,0.90
2022-07-26T10:43:38.885Z,0.98
2022-07-26T10:46:20.514Z,1.08
2022-07-26T10:49:09.281Z,0.82
2022-07-26T10:52:08.672Z,0.80
2022-07-26T10:54:57.917Z,0.52
2022-07-26T10:57:45.244Z,0.88
2022-07-26T11:00:30.866Z,0.70
2022-07-26T11:03:16.621Z,0.98
2022-07-26T11:06:29.071Z,0.70
2022-07-26T11:09:16.020Z,0.80
2022-07-26T11:12:18.269Z,0.77
2022-07-26T11:15:15.850Z,0.88
2022-07-26T11:18:28.238Z,0.90
2022-07-26T11:21:15.651Z,1.17
2022-07-26T11:24:03.917Z,0.88
2022-07-26T11:26:50.307Z,0.80
2022-07-26T11:29:38.512Z,0.95
2022-07-26T11:32:26.704Z,1.48
2022-07-26T11:35:12.670Z,1.17
2022-07-26T11:38:11.341Z,1.08
2022-07-26T11:40:57.780Z,0.80
2022-07-26T11:43:43.481Z,0.80
2022-07-26T11:46:38.470Z,0.80
2022-07-26T11:49:52.113Z,0.90
2022-07-26T11:52:32.647Z,0.90
2022-07-26T11:55:29.269Z,0.80
2022-07-26T11:58:14.836Z,0.88
2022-07-26T12:01:00.775Z,0.70
2022-07-26T12:03:49.452Z,0.90
2022-07-26T12:06:39.063Z,1.02
2022-07-26T12:09:36.394Z,1.33
2022-07-26T12:12:27.855Z,1.25
2022-07-26T12:15:15.623Z,0.90
2022-07-26T12:18:01.238Z,0.80
2022-07-26T12:21:02.151Z,1.10
2022-07-26T12:23:51.091Z,1.05
2022-07-26T12:26:37.494Z,1.17
2022-07-26T12:29:29.957Z,1.08
2022-07-26T12:32:18.753Z,1.00
2022-07-26T12:35:12.761Z,0.70
2022-07-26T12:37:58.631Z,1.20
2022-07-26T12:40:44.363Z,1.00
2022-07-26T12:43:41.694Z,1.27
2022-07-26T12:46:27.777Z,1.15
2022-07-26T12:49:13.653Z,1.65
2022-07-26T12:51:59.522Z,1.25
2022-07-26T12:54:48.860Z,1.25
2022-07-26T12:57:35.262Z,1.15
2022-07-26T13:00:22.979Z,1.48
2022-07-26T13:03:08.472Z,1.23
2022-07-26T13:05:54.164Z,1.20
2022-07-26T13:08:39.736Z,1.00
2022-07-26T13:11:25.664Z,1.10
2022-07-26T13:14:11.891Z,1.35
2022-07-26T13:16:59.934Z,1.35
2022-07-26T13:19:45.697Z,1.00
2022-07-26T13:22:31.400Z,0.90
2022-07-26T13:25:19.346Z,1.00
2022-07-26T13:28:06.070Z,1.00
2022-07-26T13:30:51.636Z,1.20
2022-07-26T13:33:39.269Z,1.02
2022-07-26T13:36:25.038Z,0.77
2022-07-26T13:39:11.101Z,1.10
2022-07-26T13:41:56.665Z,0.80
2022-07-26T13:44:42.544Z,1.02
2022-07-26T13:47:28.043Z,1.10
2022-07-26T13:50:13.530Z,1.00
2022-07-26T13:52:59.713Z,0.90
2022-07-26T13:55:45.519Z,1.38
2022-07-26T13:58:32.603Z,0.98
2022-07-26T14:01:18.613Z,0.80
2022-07-26T14:04:05.923Z,1.20
2022-07-26T14:06:52.440Z,1.13
2022-07-26T14:09:38.217Z,1.10
2022-07-26T14:12:23.657Z,1.20
2022-07-26T14:15:14.138Z,1.00
2022-07-26T14:18:04.689Z,1.20
2022-07-26T14:20:50.524Z,0.90
2022-07-26T14:23:36.053Z,1.10
2022-07-26T14:26:21.536Z,1.10
2022-07-26T14:29:07.090Z,0.77
2022-07-26T14:31:53.125Z,0.90
2022-07-26T14:34:39.717Z,0.77
2022-07-26T14:37:42.977Z,0.95
2022-07-26T14:40:30.845Z,1.10
2022-07-26T14:43:16.494Z,1.25
2022-07-26T14:46:03.034Z,1.10
2022-07-26T14:48:54.374Z,0.93
2022-07-26T14:51:40.570Z,0.90
2022-07-26T14:54:26.241Z,1.15
2022-07-26T14:57:11.833Z,1.05
2022-07-26T14:59:59.249Z,0.80
2022-07-26T15:02:47.449Z,1.00
2022-07-26T15:05:33.128Z,1.27
2022-07-26T15:08:18.745Z,0.90
2022-07-26T15:11:05.577Z,1.30
2022-07-26T15:13:51.223Z,1.27
2022-07-26T15:16:37.157Z,1.02
2022-07-26T15:19:25.650Z,1.00
2022-07-26T15:22:11.441Z,1.23
2022-07-26T15:24:56.973Z,1.00
2022-07-26T15:27:42.502Z,1.02
2022-07-26T15:30:28.390Z,1.17
2022-07-26T15:33:14.597Z,1.10
2022-07-26T15:36:04.036Z,1.00
2022-07-26T15:38:51.440Z,1.00
2022-07-26T15:41:37.905Z,1.05
2022-07-26T15:44:24.295Z,1.00
2022-07-26T15:47:11.752Z,1.00
2022-07-26T15:49:57.467Z,1.15
2022-07-26T15:52:48.388Z,1.10
2022-07-26T15:55:34.019Z,1.60
2022-07-26T15:58:21.181Z,1.20
2022-07-26T16:01:07.188Z,0.98
2022-07-26T16:03:52.918Z,1.02
2022-07-26T16:06:38.527Z,1.00
2022-07-26T16:09:24.501Z,1.60
2022-07-26T16:12:10.549Z,1.20
2022-07-26T16:14:56.089Z,1.30
2022-07-26T16:17:41.904Z,1.17
2022-07-26T16:20:27.841Z,1.20
2022-07-26T16:23:13.345Z,1.30
2022-07-26T16:25:59.289Z,1.35
2022-07-26T16:28:45.093Z,1.63
2022-07-26T16:31:31.356Z,1.20
2022-07-26T16:34:17.327Z,1.00
2022-07-26T16:37:04.154Z,0.82
2022-07-26T16:39:49.709Z,1.35
2022-07-26T16:42:35.268Z,0.95
2022-07-26T16:45:20.789Z,1.20
2022-07-26T16:48:06.889Z,1.23
2022-07-26T16:50:53.226Z,1.13
2022-07-26T16:53:39.848Z,1.13
2022-07-26T16:56:25.512Z,1.00
2022-07-26T16:59:11.738Z,0.90
2022-07-26T17:02:01.617Z,1.48
2022-07-26T17:04:48.675Z,1.30
2022-07-26T17:07:38.302Z,0.90
2022-07-26T17:10:24.473Z,1.05
2022-07-26T17:13:10.539Z,0.98
2022-07-26T17:15:56.513Z,1.23
2022-07-26T17:18:42.698Z,1.05
2022-07-26T17:21:29.080Z,1.27
2022-07-26T17:24:16.143Z,1.17
2022-07-26T17:27:02.146Z,1.20
2022-07-26T17:29:48.105Z,1.25
2022-07-26T17:32:34.376Z,1.02
2022-07-26T17:35:20.427Z,1.10
2022-07-26T17:38:07.783Z,1.30
2022-07-26T17:40:54.052Z,1.83
2022-07-26T17:43:39.650Z,1.60
2022-07-26T17:46:25.477Z,1.30
2022-07-26T17:49:12.398Z,1.50
2022-07-26T17:51:58.717Z,1.20
2022-07-26T17:54:44.499Z,1.40
2022-07-26T17:57:31.220Z,1.50
2022-07-26T18:00:21.171Z,1.48
2022-07-26T18:03:07.030Z,1.45
2022-07-26T18:05:52.826Z,1.83
2022-07-26T18:08:38.595Z,1.52
2022-07-26T18:11:24.767Z,1.55
2022-07-26T18:14:11.584Z,1.30
2022-07-26T18:16:58.074Z,1.63
2022-07-26T18:19:44.347Z,1.67
2022-07-26T18:22:30.595Z,1.73
2022-07-26T18:25:16.973Z,1.50
2022-07-26T18:28:06.807Z,1.65
2022-07-26T18:30:53.318Z,1.45
2022-07-26T18:33:39.003Z,1.63
2022-07-26T18:36:24.892Z,2.28
2022-07-26T18:39:12.327Z,1.50
2022-07-26T18:41:58.673Z,1.50
2022-07-26T18:44:44.831Z,1.67
2022-07-26T18:47:30.569Z,1.38
2022-07-26T18:50:17.250Z,1.70
2022-07-26T18:53:03.050Z,1.30
2022-07-26T18:55:49.654Z,1.42
2022-07-26T18:58:35.293Z,1.70
2022-07-26T19:01:20.878Z,1.40
2022-07-26T19:04:07.358Z,1.90
2022-07-26T19:06:53.249Z,1.65
2022-07-26T19:09:39.116Z,1.58
2022-07-26T19:12:24.653Z,1.60
2022-07-26T19:15:10.494Z,1.45
2022-07-26T19:17:56.692Z,1.48
2022-07-26T19:20:43.733Z,1.77
2022-07-26T19:23:29.687Z,1.83
2022-07-26T19:26:15.453Z,1.65
2022-07-26T19:29:01.215Z,1.73
2022-07-26T19:31:46.961Z,1.67
2022-07-26T19:34:32.677Z,1.42
2022-07-26T19:37:21.809Z,1.38
2022-07-26T19:40:08.077Z,1.70
2022-07-26T19:42:53.666Z,1.50
2022-07-26T19:45:39.604Z,1.55
2022-07-26T19:48:25.111Z,1.70
2022-07-26T19:51:10.599Z,1.67
2022-07-26T19:53:56.089Z,2.08
2022-07-26T19:56:41.921Z,2.08
2022-07-26T19:59:27.423Z,1.88
2022-07-26T20:02:13.661Z,1.77
2022-07-26T20:05:00.649Z,1.42
2022-07-26T20:07:50.349Z,1.95
2022-07-26T20:10:36.224Z,1.83
2022-07-26T20:13:22.141Z,1.35
2022-07-26T20:16:07.808Z,1.60
2022-07-26T20:18:53.452Z,1.20
2022-07-26T20:21:39.096Z,1.65
2022-07-26T20:24:26.068Z,0.95
2022-07-26T20:27:11.662Z,1.50
2022-07-26T20:30:00.924Z,1.30
2022-07-26T20:32:47.016Z,1.05
2022-07-26T20:35:32.425Z,1.50
2022-07-26T20:38:20.731Z,1.10
2022-07-26T20:41:06.711Z,1.35
2022-07-26T20:43:52.536Z,1.10
2022-07-26T20:46:40.178Z,1.40
2022-07-26T20:49:26.383Z,1.80
2022-07-26T20:52:11.720Z,1.10
2022-07-26T20:54:57.411Z,1.63
2022-07-26T20:57:43.343Z,1.02
2022-07-26T21:00:30.478Z,1.10
2022-07-26T21:03:17.251Z,1.10
2022-07-26T21:06:03.092Z,1.33
2022-07-26T21:08:48.673Z,1.13
2022-07-26T21:11:34.471Z,0.82
2022-07-26T21:14:20.296Z,1.10
2022-07-26T21:17:11.378Z,1.20
2022-07-26T21:19:57.730Z,1.42
2022-07-26T21:22:43.350Z,1.15
2022-07-26T21:25:28.853Z,1.42
2022-07-26T21:28:14.680Z,1.45
2022-07-26T21:31:00.557Z,1.17
2022-07-26T21:33:45.867Z,1.40
2022-07-26T21:36:31.474Z,1.42
2022-07-26T21:39:17.694Z,1.10
2022-07-26T21:42:03.332Z,1.10
2022-07-26T21:44:48.953Z,1.10
2022-07-26T21:47:34.697Z,1.10
2022-07-26T21:50:23.309Z,1.27
2022-07-26T21:53:09.089Z,0.88
2022-07-26T21:55:56.422Z,1.27
2022-07-26T21:58:41.967Z,1.35
2022-07-26T22:01:27.503Z,1.42
2022-07-26T22:04:13.095Z,1.13
2022-07-26T22:06:58.609Z,1.08
2022-07-26T22:09:44.129Z,1.25
2022-07-26T22:12:30.753Z,1.30
2022-07-26T22:15:16.387Z,1.15
2022-07-26T22:18:02.869Z,1.15
2022-07-26T22:20:49.871Z,1.20
2022-07-26T22:23:35.273Z,1.02
2022-07-26T22:26:25.995Z,1.02
2022-07-26T22:29:12.114Z,1.20
2022-07-26T22:31:57.981Z,1.15
2022-07-26T22:34:43.321Z,1.00
2022-07-26T22:37:28.905Z,1.00
2022-07-26T22:40:14.410Z,1.20
2022-07-26T22:43:00.493Z,1.35
2022-07-26T22:45:46.213Z,1.42
2022-07-26T22:48:35.860Z,1.13
2022-07-26T22:51:23.544Z,1.48
2022-07-26T22:54:09.155Z,1.30
2022-07-26T22:56:54.559Z,0.98
2022-07-26T22:59:40.016Z,1.27
2022-07-26T23:02:25.765Z,1.00
2022-07-26T23:05:12.109Z,0.90
2022-07-26T23:08:00.456Z,1.00
2022-07-26T23:10:49.155Z,1.00
2022-07-26T23:13:34.620Z,1.05
2022-07-26T23:16:20.177Z,1.13
2022-07-26T23:19:08.479Z,1.00
2022-07-26T23:21:54.232Z,1.02
2022-07-26T23:24:39.841Z,0.90
2022-07-26T23:27:28.929Z,0.98
2022-07-26T23:30:14.301Z,0.73
2022-07-26T23:32:59.849Z,1.33
2022-07-26T23:35:45.488Z,0.90
2022-07-26T23:38:31.071Z,0.95
2022-07-26T23:41:16.798Z,0.77
2022-07-26T23:44:02.571Z,1.00
2022-07-26T23:46:48.150Z,0.95
2022-07-26T23:49:33.646Z,0.98
2022-07-26T23:52:18.995Z,0.90
2022-07-26T23:55:04.769Z,0.93
2022-07-26T23:57:50.372Z,1.05
